createdAt,value
2023-04-17T00:01:34.226Z,8.70
2023-04-17T00:04:03.839Z,8.70
2023-04-17T00:06:33.878Z,8.70
2023-04-17T00:09:01.893Z,8.70
2023-04-17T00:11:29.921Z,8.70
2023-04-17T00:13:57.902Z,8.70
2023-04-17T00:16:27.204Z,8.70
2023-04-17T00:18:55.551Z,8.70
2023-04-17T00:21:24.932Z,8.60
2023-04-17T00:23:52.957Z,8.60
2023-04-17T00:26:20.963Z,8.60
2023-04-17T00:28:50.343Z,8.90
2023-04-17T00:31:18.416Z,8.60
2023-04-17T00:33:47.038Z,8.60
2023-04-17T00:36:15.598Z,8.60
2023-04-17T00:38:45.009Z,8.60
2023-04-17T00:41:13.149Z,8.80
2023-04-17T00:43:41.250Z,8.60
2023-04-17T00:46:10.146Z,8.60
2023-04-17T00:48:40.955Z,8.60
2023-04-17T00:51:09.528Z,8.60
2023-04-17T00:53:37.743Z,8.60
2023-04-17T00:56:08.063Z,8.60
2023-04-17T00:58:38.122Z,8.60
2023-04-17T01:01:06.833Z,8.60
2023-04-17T01:03:35.394Z,8.60
2023-04-17T01:06:03.954Z,8.60
2023-04-17T01:08:41.448Z,8.60
2023-04-17T01:11:11.642Z,8.60
2023-04-17T01:13:46.767Z,8.50
2023-04-17T01:16:15.090Z,8.70
2023-04-17T01:18:43.415Z,8.60
2023-04-17T01:21:11.849Z,8.60
2023-04-17T01:23:45.508Z,8.60
2023-04-17T01:26:18.516Z,8.60
2023-04-17T01:28:51.901Z,8.60
2023-04-17T01:31:20.288Z,8.60
2023-04-17T01:33:48.733Z,8.60
2023-04-17T01:36:17.130Z,8.60
2023-04-17T01:38:45.288Z,8.60
2023-04-17T01:41:13.892Z,8.60
2023-04-17T01:43:45.040Z,8.60
2023-04-17T01:46:13.375Z,8.60
2023-04-17T01:48:41.700Z,8.60
2023-04-17T01:51:09.700Z,8.70
2023-04-17T01:53:39.124Z,8.70
2023-04-17T01:56:07.713Z,8.60
2023-04-17T01:58:35.920Z,8.70
2023-04-17T02:01:06.122Z,8.60
2023-04-17T02:03:34.270Z,8.70
2023-04-17T02:06:02.350Z,8.70
2023-04-17T02:08:30.462Z,8.60
2023-04-17T02:10:58.465Z,8.70
2023-04-17T02:13:26.461Z,8.60
2023-04-17T02:18:34.469Z,8.60
2023-04-17T02:21:02.488Z,8.60
2023-04-17T02:23:30.574Z,8.60
2023-04-17T02:25:58.644Z,8.70
2023-04-17T02:28:26.666Z,8.60
2023-04-17T02:30:55.076Z,8.60
2023-04-17T02:33:23.198Z,8.60
2023-04-17T02:35:52.694Z,8.60
2023-04-17T02:38:20.726Z,8.60
2023-04-17T02:40:48.729Z,8.50
2023-04-17T02:43:17.218Z,8.60
2023-04-17T02:45:45.452Z,8.40
2023-04-17T02:48:13.494Z,8.50
2023-04-17T02:50:41.534Z,8.50
2023-04-17T02:53:11.803Z,8.50
2023-04-17T02:55:39.862Z,8.50
2023-04-17T02:58:07.898Z,8.50
2023-04-17T03:00:36.062Z,8.50
2023-04-17T03:03:05.030Z,8.50
2023-04-17T03:05:33.243Z,8.40
2023-04-17T03:08:01.549Z,8.40
2023-04-17T03:10:31.020Z,8.40
2023-04-17T03:12:59.029Z,8.40
2023-04-17T03:15:27.087Z,8.40
2023-04-17T03:17:55.372Z,8.40
2023-04-17T03:20:23.432Z,8.40
2023-04-17T03:22:51.481Z,8.40
2023-04-17T03:25:19.533Z,8.60
2023-04-17T03:27:48.989Z,8.40
2023-04-17T03:30:17.057Z,8.40
2023-04-17T03:32:45.162Z,8.40
2023-04-17T03:35:13.381Z,8.30
2023-04-17T03:37:41.600Z,8.30
2023-04-17T03:40:10.479Z,8.30
2023-04-17T03:42:38.540Z,8.40
2023-04-17T03:45:09.663Z,8.30
2023-04-17T03:47:37.758Z,8.30
2023-04-17T03:50:07.084Z,8.30
2023-04-17T03:52:35.137Z,8.30
2023-04-17T03:55:06.315Z,8.30
2023-04-17T03:57:34.355Z,8.30
2023-04-17T04:00:02.468Z,8.20
2023-04-17T04:02:32.115Z,8.20
2023-04-17T04:05:00.516Z,8.20
2023-04-17T04:07:28.656Z,8.10
2023-04-17T04:09:57.018Z,8.10
2023-04-17T04:12:25.058Z,8.00
2023-04-17T04:14:53.152Z,8.00
2023-04-17T04:17:21.346Z,7.90
2023-04-17T04:19:50.844Z,7.90
2023-04-17T04:22:21.351Z,7.80
2023-04-17T04:24:49.426Z,7.80
2023-04-17T04:27:18.176Z,7.80
2023-04-17T04:29:48.821Z,7.80
2023-04-17T04:32:17.134Z,7.70
2023-04-17T04:34:45.659Z,7.70
2023-04-17T04:37:16.039Z,7.70
2023-04-17T04:39:44.455Z,7.70
2023-04-17T04:42:12.506Z,7.70
2023-04-17T04:44:40.684Z,7.70
2023-04-17T04:47:08.776Z,7.60
2023-04-17T04:49:36.926Z,7.60
2023-04-17T04:52:05.016Z,7.60
2023-04-17T04:54:34.539Z,7.60
2023-04-17T04:57:02.644Z,7.60
2023-04-17T04:59:30.639Z,7.90
2023-04-17T05:01:58.824Z,7.70
2023-04-17T05:04:27.190Z,7.70
2023-04-17T05:06:55.345Z,7.70
2023-04-17T05:09:23.401Z,7.70
2023-04-17T05:11:54.000Z,7.60
2023-04-17T05:14:22.100Z,7.80
2023-04-17T05:16:51.034Z,7.80
2023-04-17T05:19:19.312Z,7.90
2023-04-17T05:21:47.427Z,7.80
2023-04-17T05:24:15.510Z,7.90
2023-04-17T05:26:43.653Z,7.90
2023-04-17T05:29:13.402Z,8.00
2023-04-17T05:31:41.914Z,8.00
2023-04-17T05:34:09.978Z,8.10
2023-04-17T05:36:37.997Z,8.20
2023-04-17T05:39:06.153Z,8.20
2023-04-17T05:41:34.234Z,8.30
2023-04-17T05:44:02.777Z,8.30
2023-04-17T05:46:32.194Z,8.40
2023-04-17T05:49:00.397Z,8.40
2023-04-17T05:51:28.863Z,8.50
2023-04-17T05:53:57.043Z,8.60
2023-04-17T05:56:26.250Z,8.70
2023-04-17T05:58:54.313Z,8.70
2023-04-17T06:01:22.533Z,8.80
2023-04-17T06:03:52.944Z,8.90
2023-04-17T06:06:21.458Z,9.00
2023-04-17T06:08:49.461Z,9.10
2023-04-17T06:11:17.578Z,9.20
2023-04-17T06:13:45.592Z,9.30
2023-04-17T06:16:13.730Z,9.40
2023-04-17T06:18:42.982Z,9.50
2023-04-17T06:21:12.513Z,9.60
2023-04-17T06:23:40.703Z,9.70
2023-04-17T06:26:10.826Z,9.70
2023-04-17T06:28:38.825Z,9.80
2023-04-17T06:31:07.055Z,9.90
2023-04-17T06:33:35.180Z,10.00
2023-04-17T06:36:03.609Z,10.10
2023-04-17T06:38:38.662Z,10.20
2023-04-17T06:41:06.803Z,10.20
2023-04-17T06:43:35.066Z,10.20
2023-04-17T06:46:03.262Z,10.20
2023-04-17T06:48:31.369Z,10.10
2023-04-17T06:50:59.471Z,10.20
2023-04-17T06:53:27.671Z,10.40
2023-04-17T06:55:57.078Z,10.40
2023-04-17T06:58:25.244Z,10.50
2023-04-17T07:00:53.337Z,10.70
2023-04-17T07:03:21.701Z,10.80
2023-04-17T07:05:50.704Z,10.80
2023-04-17T07:08:22.395Z,11.00
2023-04-17T07:10:50.716Z,11.10
2023-04-17T07:13:20.287Z,11.10
2023-04-17T07:15:53.470Z,11.30
2023-04-17T07:18:22.661Z,11.60
2023-04-17T07:20:50.824Z,11.70
2023-04-17T07:23:19.034Z,11.90
2023-04-17T07:25:47.162Z,12.10
2023-04-17T07:28:15.456Z,12.20
2023-04-17T07:30:51.190Z,12.50
2023-04-17T07:33:19.261Z,12.70
2023-04-17T07:35:47.365Z,13.10
2023-04-17T07:38:15.546Z,13.30
2023-04-17T07:40:44.431Z,13.30
2023-04-17T07:43:12.569Z,13.20
2023-04-17T07:45:41.914Z,13.30
2023-04-17T07:48:11.767Z,13.30
2023-04-17T07:50:40.177Z,13.00
2023-04-17T07:53:08.805Z,12.90
2023-04-17T07:55:36.952Z,12.80
2023-04-17T07:58:06.435Z,12.80
2023-04-17T08:00:34.685Z,13.10
2023-04-17T08:03:03.115Z,13.50
2023-04-17T08:05:33.179Z,13.60
2023-04-17T08:08:01.413Z,13.90
2023-04-17T08:10:29.959Z,13.90
2023-04-17T08:12:58.115Z,13.90
2023-04-17T08:15:26.459Z,13.70
2023-04-17T08:17:54.700Z,14.00
2023-04-17T08:20:23.212Z,14.40
2023-04-17T08:22:52.791Z,14.20
2023-04-17T08:25:20.944Z,14.30
2023-04-17T08:27:49.074Z,14.20
2023-04-17T08:30:19.179Z,14.20
2023-04-17T08:32:48.782Z,14.20
2023-04-17T08:35:17.572Z,14.00
2023-04-17T08:37:47.619Z,14.20
2023-04-17T08:40:18.739Z,14.20
2023-04-17T08:42:48.312Z,14.30
2023-04-17T08:45:17.554Z,14.40
2023-04-17T08:47:46.019Z,14.40
2023-04-17T08:50:15.782Z,14.60
2023-04-17T08:52:45.392Z,15.00
2023-04-17T08:55:15.159Z,15.20
2023-04-17T08:57:58.713Z,15.50
2023-04-17T09:00:28.593Z,15.80
2023-04-17T09:02:58.864Z,15.90
2023-04-17T09:05:30.478Z,15.60
2023-04-17T09:08:13.042Z,16.50
2023-04-17T09:10:43.056Z,18.20
2023-04-17T09:13:14.726Z,19.50
2023-04-17T09:15:44.100Z,20.80
2023-04-17T09:18:26.264Z,22.10
2023-04-17T09:20:55.173Z,23.50
2023-04-17T09:23:23.715Z,23.80
2023-04-17T09:26:07.951Z,24.20
2023-04-17T09:28:39.576Z,24.20
2023-04-17T09:31:24.615Z,24.90
2023-04-17T09:33:58.219Z,25.80
2023-04-17T09:36:27.875Z,25.40
2023-04-17T09:38:57.688Z,24.40
2023-04-17T09:41:27.441Z,25.40
2023-04-17T09:44:02.229Z,25.60
2023-04-17T09:46:39.114Z,25.10
2023-04-17T09:49:12.041Z,25.20
2023-04-17T09:51:43.472Z,25.20
2023-04-17T09:54:12.825Z,25.30
2023-04-17T09:56:41.760Z,25.80
2023-04-17T09:59:11.662Z,25.60
2023-04-17T10:01:40.876Z,26.10
2023-04-17T10:04:09.328Z,26.70
2023-04-17T10:06:39.649Z,27.80
2023-04-17T10:09:08.116Z,29.40
2023-04-17T10:11:39.434Z,28.40
2023-04-17T10:14:19.556Z,27.70
2023-04-17T10:16:49.182Z,27.50
2023-04-17T10:19:36.589Z,26.90
2023-04-17T10:22:30.244Z,25.30
2023-04-17T10:25:21.257Z,24.80
2023-04-17T10:27:54.587Z,25.60
2023-04-17T10:30:26.661Z,26.60
2023-04-17T10:33:24.971Z,26.70
2023-04-17T10:35:53.584Z,28.00
2023-04-17T10:38:35.530Z,28.80
2023-04-17T10:41:05.409Z,26.70
2023-04-17T10:43:34.531Z,26.20
2023-04-17T10:46:06.576Z,25.10
2023-04-17T10:48:36.893Z,22.90
2023-04-17T10:51:44.147Z,21.90
2023-04-17T10:54:15.954Z,22.00
2023-04-17T10:56:48.853Z,21.80
2023-04-17T10:59:18.993Z,22.80
2023-04-17T11:02:06.931Z,24.10
2023-04-17T11:04:36.128Z,25.10
2023-04-17T11:07:04.603Z,23.50
2023-04-17T11:09:32.829Z,22.50
2023-04-17T11:12:02.886Z,23.50
2023-04-17T11:14:32.284Z,24.20
2023-04-17T11:17:02.504Z,24.60
2023-04-17T11:19:31.015Z,23.80
2023-04-17T11:22:01.657Z,23.50
2023-04-17T11:24:31.460Z,22.20
2023-04-17T11:27:01.152Z,21.10
2023-04-17T11:29:29.624Z,20.40
2023-04-17T11:31:59.201Z,19.60
2023-04-17T11:34:28.895Z,19.80
2023-04-17T11:36:58.385Z,20.50
2023-04-17T11:39:29.195Z,20.40
2023-04-17T11:41:58.056Z,20.20
2023-04-17T11:44:27.151Z,20.00
2023-04-17T11:46:58.863Z,19.90
2023-04-17T11:49:29.506Z,19.90
2023-04-17T11:52:00.129Z,20.70
2023-04-17T11:54:28.992Z,20.20
2023-04-17T11:57:01.677Z,19.80
2023-04-17T11:59:33.804Z,19.70
2023-04-17T12:02:02.390Z,20.00
2023-04-17T12:04:34.465Z,19.80
2023-04-17T12:07:03.715Z,19.50
2023-04-17T12:09:32.639Z,19.10
2023-04-17T12:12:01.443Z,18.90
2023-04-17T12:14:29.812Z,18.80
2023-04-17T12:16:58.078Z,18.80
2023-04-17T12:19:28.100Z,18.60
2023-04-17T12:21:59.233Z,18.70
2023-04-17T12:24:27.513Z,18.60
2023-04-17T12:26:56.133Z,18.80
2023-04-17T12:29:42.330Z,19.10
2023-04-17T12:32:11.949Z,19.10
2023-04-17T12:34:40.482Z,19.40
2023-04-17T12:37:10.162Z,19.60
2023-04-17T12:39:38.348Z,19.70
2023-04-17T12:42:06.595Z,20.10
2023-04-17T12:44:34.816Z,20.60
2023-04-17T12:47:02.976Z,21.10
2023-04-17T12:49:31.139Z,21.20
2023-04-17T12:52:01.621Z,20.90
2023-04-17T12:54:33.130Z,20.40
2023-04-17T12:57:02.347Z,19.70
2023-04-17T12:59:30.610Z,19.40
2023-04-17T13:01:58.861Z,18.60
2023-04-17T13:04:27.307Z,17.90
2023-04-17T13:06:55.467Z,17.80
2023-04-17T13:09:23.533Z,18.00
2023-04-17T13:11:53.198Z,18.20
2023-04-17T13:14:21.464Z,18.50
2023-04-17T13:16:50.642Z,18.70
2023-04-17T13:19:19.027Z,19.30
2023-04-17T13:21:47.273Z,20.10
2023-04-17T13:24:15.691Z,20.70
2023-04-17T13:26:43.855Z,20.40
2023-04-17T13:29:13.925Z,20.20
2023-04-17T13:31:42.814Z,20.00
2023-04-17T13:34:11.452Z,19.50
2023-04-17T13:36:39.633Z,19.40
2023-04-17T13:39:07.876Z,19.20
2023-04-17T13:41:37.060Z,18.80
2023-04-17T13:44:05.535Z,18.30
2023-04-17T13:46:36.433Z,18.10
2023-04-17T13:49:04.694Z,18.60
2023-04-17T13:51:32.909Z,19.20
2023-04-17T13:54:01.133Z,19.60
2023-04-17T13:56:29.423Z,20.00
2023-04-17T13:58:57.711Z,20.30
2023-04-17T14:01:25.912Z,19.90
2023-04-17T14:03:55.926Z,19.80
2023-04-17T14:06:24.161Z,19.50
2023-04-17T14:08:52.337Z,19.10
2023-04-17T14:11:21.198Z,18.80
2023-04-17T14:13:49.492Z,18.70
2023-04-17T14:16:19.008Z,18.70
2023-04-17T14:18:49.308Z,18.30
2023-04-17T14:21:19.242Z,17.70
2023-04-17T14:23:47.337Z,17.30
2023-04-17T14:26:15.641Z,17.20
2023-04-17T14:28:43.790Z,17.10
2023-04-17T14:31:12.096Z,17.20
2023-04-17T14:33:40.301Z,17.10
2023-04-17T14:36:08.999Z,17.20
2023-04-17T14:38:38.559Z,17.10
2023-04-17T14:41:09.252Z,17.10
2023-04-17T14:43:37.419Z,17.00
2023-04-17T14:46:05.631Z,17.10
2023-04-17T14:48:41.188Z,17.20
2023-04-17T14:51:20.295Z,17.40
2023-04-17T14:53:49.811Z,17.80
2023-04-17T14:56:18.376Z,18.00
2023-04-17T14:58:46.785Z,18.10
2023-04-17T15:01:15.053Z,18.10
2023-04-17T15:03:47.423Z,18.20
2023-04-17T15:06:16.621Z,18.30
2023-04-17T15:08:46.125Z,18.50
2023-04-17T15:11:16.062Z,18.80
2023-04-17T15:13:44.221Z,18.90
2023-04-17T15:16:12.498Z,18.60
2023-04-17T15:18:40.697Z,18.40
2023-04-17T15:21:09.337Z,18.40
2023-04-17T15:23:37.545Z,18.40
2023-04-17T15:26:06.173Z,18.30
2023-04-17T15:28:36.956Z,18.30
2023-04-17T15:31:05.102Z,17.90
2023-04-17T15:33:33.601Z,17.80
2023-04-17T15:36:03.813Z,17.70
2023-04-17T15:38:31.993Z,17.50
2023-04-17T15:41:00.111Z,17.40
2023-04-17T15:43:28.622Z,17.30
2023-04-17T15:45:59.126Z,17.60
2023-04-17T15:48:27.565Z,17.80
2023-04-17T15:50:55.697Z,18.00
2023-04-17T15:53:23.875Z,18.30
2023-04-17T15:55:53.601Z,18.50
2023-04-17T15:58:21.667Z,18.70
2023-04-17T16:00:49.824Z,18.60
2023-04-17T16:03:19.659Z,18.90
2023-04-17T16:05:47.883Z,18.90
2023-04-17T16:08:16.010Z,19.20
2023-04-17T16:10:44.509Z,19.40
2023-04-17T16:13:12.580Z,19.40
2023-04-17T16:15:40.684Z,19.30
2023-04-17T16:18:09.798Z,19.10
2023-04-17T16:20:40.147Z,18.80
2023-04-17T16:23:08.271Z,18.20
2023-04-17T16:25:36.453Z,17.70
2023-04-17T16:28:04.572Z,17.40
2023-04-17T16:30:33.474Z,17.20
2023-04-17T16:33:03.667Z,17.00
2023-04-17T16:35:31.772Z,16.70
2023-04-17T16:38:02.170Z,16.40
2023-04-17T16:40:31.026Z,16.10
2023-04-17T16:43:00.274Z,16.10
2023-04-17T16:45:28.983Z,16.00
2023-04-17T16:47:57.319Z,15.70
2023-04-17T16:50:25.836Z,15.40
2023-04-17T16:52:53.976Z,15.30
2023-04-17T16:55:24.809Z,15.10
2023-04-17T16:57:52.915Z,15.00
2023-04-17T17:00:21.458Z,14.90
2023-04-17T17:02:49.706Z,14.80
2023-04-17T17:05:17.927Z,14.70
2023-04-17T17:07:45.999Z,14.50
2023-04-17T17:10:14.203Z,14.40
2023-04-17T17:12:43.753Z,14.30
2023-04-17T17:15:12.867Z,14.20
2023-04-17T17:17:41.116Z,14.10
2023-04-17T17:20:11.457Z,14.20
2023-04-17T17:22:39.790Z,14.20
2023-04-17T17:25:08.931Z,14.10
2023-04-17T17:27:37.131Z,14.00
2023-04-17T17:30:07.796Z,14.00
2023-04-17T17:32:36.027Z,13.90
2023-04-17T17:35:04.434Z,13.80
2023-04-17T17:37:32.480Z,13.80
2023-04-17T17:40:00.836Z,13.70
2023-04-17T17:42:29.072Z,13.60
2023-04-17T17:44:57.427Z,13.60
2023-04-17T17:47:26.985Z,13.50
2023-04-17T17:49:55.247Z,13.40
2023-04-17T17:52:23.473Z,13.40
2023-04-17T17:54:53.020Z,13.30
2023-04-17T17:57:21.312Z,13.20
2023-04-17T17:59:50.483Z,13.10
2023-04-17T18:02:19.363Z,13.00
2023-04-17T18:04:49.197Z,12.90
2023-04-17T18:07:17.608Z,12.80
2023-04-17T18:09:46.983Z,12.70
2023-04-17T18:12:16.510Z,12.60
2023-04-17T18:14:44.697Z,12.50
2023-04-17T18:17:13.004Z,12.40
2023-04-17T18:19:42.133Z,12.30
2023-04-17T18:22:11.671Z,12.20
2023-04-17T18:24:39.906Z,12.00
2023-04-17T18:27:08.086Z,11.90
2023-04-17T18:29:36.202Z,11.80
2023-04-17T18:32:04.360Z,11.70
2023-04-17T18:34:32.774Z,11.50
2023-04-17T18:37:01.051Z,11.40
2023-04-17T18:39:30.571Z,11.40
2023-04-17T18:41:59.676Z,11.20
2023-04-17T18:44:27.953Z,11.10
2023-04-17T18:46:56.254Z,11.00
2023-04-17T18:49:24.529Z,10.90
2023-04-17T18:51:52.718Z,10.70
2023-04-17T18:54:21.459Z,10.60
2023-04-17T18:56:51.238Z,10.50
2023-04-17T18:59:21.332Z,10.50
2023-04-17T19:01:49.618Z,10.30
2023-04-17T19:04:17.744Z,10.20
2023-04-17T19:06:45.941Z,10.20
2023-04-17T19:09:14.268Z,10.10
2023-04-17T19:11:42.500Z,10.00
2023-04-17T19:14:12.364Z,9.90
2023-04-17T19:16:40.822Z,9.80
2023-04-17T19:19:11.090Z,9.80
2023-04-17T19:21:39.538Z,9.70
2023-04-17T19:24:08.631Z,9.60
2023-04-17T19:26:37.246Z,9.50
2023-04-17T19:29:05.546Z,9.40
2023-04-17T19:31:35.152Z,9.40
2023-04-17T19:34:03.254Z,9.30
2023-04-17T19:36:31.589Z,9.20
2023-04-17T19:38:59.882Z,9.10
2023-04-17T19:41:28.988Z,9.00
2023-04-17T19:43:57.218Z,9.00
2023-04-17T19:46:27.457Z,8.90
2023-04-17T19:48:57.073Z,8.80
2023-04-17T19:51:25.365Z,8.80
2023-04-17T19:53:54.174Z,8.70
2023-04-17T19:56:22.730Z,8.70
2023-04-17T19:58:51.279Z,8.60
2023-04-17T20:01:20.082Z,8.50
2023-04-17T20:03:48.420Z,8.50
2023-04-17T20:06:18.073Z,8.50
2023-04-17T20:08:46.226Z,8.40
2023-04-17T20:11:16.417Z,8.30
2023-04-17T20:13:44.590Z,8.30
2023-04-17T20:16:12.974Z,8.20
2023-04-17T20:18:41.798Z,8.20
2023-04-17T20:21:10.289Z,8.10
2023-04-17T20:23:39.935Z,8.10
2023-04-17T20:26:08.255Z,8.10
2023-04-17T20:28:36.566Z,8.00
2023-04-17T20:31:04.999Z,8.00
2023-04-17T20:33:33.412Z,8.00
2023-04-17T20:36:03.092Z,8.10
2023-04-17T20:38:31.209Z,8.20
2023-04-17T20:41:00.744Z,8.20
2023-04-17T20:43:28.870Z,8.30
2023-04-17T20:45:58.161Z,8.40
2023-04-17T20:48:26.462Z,8.50
2023-04-17T20:50:54.666Z,8.70
2023-04-17T20:53:22.863Z,8.70
2023-04-17T20:55:51.066Z,8.80
2023-04-17T20:58:20.646Z,8.90
2023-04-17T21:03:22.496Z,8.90
2023-04-17T21:05:50.707Z,8.90
2023-04-17T21:08:18.939Z,8.90
2023-04-17T21:10:47.095Z,9.20
2023-04-17T21:13:15.310Z,8.90
2023-04-17T21:15:44.893Z,8.80
2023-04-17T21:18:13.034Z,8.80
2023-04-17T21:20:41.958Z,8.80
2023-04-17T21:23:10.656Z,8.70
2023-04-17T21:25:38.766Z,8.70
2023-04-17T21:28:06.894Z,8.60
2023-04-17T21:30:34.988Z,8.50
2023-04-17T21:33:04.746Z,8.40
2023-04-17T21:35:32.933Z,8.40
2023-04-17T21:38:01.143Z,8.40
2023-04-17T21:40:33.163Z,8.30
2023-04-17T21:43:01.835Z,8.20
2023-04-17T21:45:30.045Z,8.20
2023-04-17T21:47:58.252Z,8.10
2023-04-17T21:50:27.758Z,8.00
2023-04-17T21:52:55.870Z,8.00
2023-04-17T21:55:23.958Z,8.00
2023-04-17T21:57:52.044Z,7.90
2023-04-17T22:00:20.670Z,7.80
2023-04-17T22:02:48.876Z,7.80
2023-04-17T22:05:17.211Z,7.80
2023-04-17T22:07:54.305Z,7.70
2023-04-17T22:10:22.994Z,7.70
2023-04-17T22:12:51.065Z,7.60
2023-04-17T22:15:19.576Z,7.60
2023-04-17T22:17:47.781Z,7.50
2023-04-17T22:20:16.003Z,7.60
2023-04-17T22:22:44.027Z,7.50
2023-04-17T22:25:13.514Z,7.40
2023-04-17T22:27:41.596Z,7.40
2023-04-17T22:30:10.250Z,7.50
2023-04-17T22:32:38.388Z,7.40
2023-04-17T22:35:08.032Z,7.30
2023-04-17T22:37:36.127Z,7.30
2023-04-17T22:40:05.192Z,7.30
2023-04-17T22:42:34.630Z,7.30
2023-04-17T22:45:02.683Z,7.20
2023-04-17T22:47:30.785Z,7.20
2023-04-17T22:49:59.182Z,7.30
2023-04-17T22:52:27.462Z,7.10
2023-04-17T22:54:55.763Z,7.10
2023-04-17T22:57:23.849Z,7.10
2023-04-17T22:59:53.310Z,7.00
2023-04-17T23:02:21.482Z,7.10
2023-04-17T23:04:49.566Z,7.10
2023-04-17T23:07:17.759Z,7.10
2023-04-17T23:09:46.472Z,7.00
2023-04-17T23:12:14.520Z,7.30
2023-04-17T23:14:43.431Z,7.00
2023-04-17T23:17:13.082Z,6.90
2023-04-17T23:19:41.339Z,6.80
2023-04-17T23:22:10.197Z,6.70
2023-04-17T23:24:38.349Z,6.80
2023-04-17T23:27:06.388Z,6.80
2023-04-17T23:29:34.469Z,6.80
2023-04-17T23:32:04.454Z,6.70
2023-04-17T23:34:33.942Z,6.50
2023-04-17T23:37:02.503Z,6.60
2023-04-17T23:39:30.882Z,6.60
2023-04-17T23:42:00.615Z,6.60
2023-04-17T23:44:28.667Z,6.60
2023-04-17T23:46:56.742Z,6.50
2023-04-17T23:49:24.810Z,6.50
2023-04-17T23:51:54.365Z,6.50
2023-04-17T23:54:22.462Z,6.50
2023-04-17T23:56:50.523Z,6.40
2023-04-17T23:59:18.672Z,6.30
